Time;durP1;ratioP1;P1;durP2;ratioP2;P2;SDS_P1;SDS_P2;PMS_P1;PMS_P2;Temp;Humidity;BMP_temperature;BMP_pressure;BME280_temperature;BME280_humidity;BME280_pressure;Samples;Min_cycle;Max_cycle;Signal;HPM_P1;HPM_P2
2023/04/07 00:02:25;;;;;;;13.97;9.27;;;;;;;;;;4973335;28;20198;-72
2023/04/07 00:04:52;;;;;;;15.00;9.13;;;;;;;;;;4972780;28;20194;-72
2023/04/07 00:07:18;;;;;;;14.77;8.33;;;;;;;;;;4977300;28;20213;-70
2023/04/07 00:09:44;;;;;;;15.60;8.73;;;;;;;;;;4972010;28;20473;-71
2023/04/07 00:12:10;;;;;;;16.13;8.87;;;;;;;;;;4972286;28;20202;-70
2023/04/07 00:14:37;;;;;;;15.60;8.67;;;;;;;;;;4972083;28;20214;-70
2023/04/07 00:17:04;;;;;;;15.13;8.60;;;;;;;;;;4974602;28;20579;-70
2023/04/07 00:19:32;;;;;;;17.03;8.27;;;;;;;;;;4974393;28;20205;-70
2023/04/07 00:21:58;;;;;;;12.57;8.27;;;;;;;;;;4971543;28;20461;-70
2023/04/07 00:24:24;;;;;;;14.87;8.90;;;;;;;;;;4972979;28;20202;-70
2023/04/07 00:26:51;;;;;;;13.43;9.07;;;;;;;;;;4966869;28;20205;-70
2023/04/07 00:29:17;;;;;;;13.50;8.40;;;;;;;;;;4972326;28;20467;-70
2023/04/07 00:31:43;;;;;;;14.97;8.57;;;;;;;;;;4950556;28;20633;-70
2023/04/07 00:34:11;;;;;;;14.33;8.97;;;;;;;;;;4953356;28;20713;-70
2023/04/07 00:36:37;;;;;;;16.30;8.57;;;;;;;;;;4954711;28;20544;-70
2023/04/07 00:39:03;;;;;;;12.27;8.80;;;;;;;;;;4948407;28;21052;-70
2023/04/07 00:41:30;;;;;;;13.70;8.63;;;;;;;;;;4971029;28;20229;-70
2023/04/07 00:43:56;;;;;;;15.73;9.37;;;;;;;;;;4954939;28;20199;-70
2023/04/07 00:46:23;;;;;;;15.00;8.47;;;;;;;;;;4955885;28;20460;-70
2023/04/07 00:48:49;;;;;;;14.67;9.37;;;;;;;;;;4971601;28;20206;-71
2023/04/07 00:51:17;;;;;;;16.17;8.97;;;;;;;;;;4957376;28;20478;-70
2023/04/07 00:53:44;;;;;;;16.97;8.63;;;;;;;;;;4979457;28;20214;-73
2023/04/07 00:56:10;;;;;;;12.17;8.97;;;;;;;;;;4996074;28;20193;-71
2023/04/07 00:58:36;;;;;;;13.23;9.17;;;;;;;;;;4992889;28;20257;-72
2023/04/07 01:01:07;;;;;;;13.43;9.10;;;;;;;;;;4972861;28;20217;-71
2023/04/07 01:03:35;;;;;;;12.03;8.53;;;;;;;;;;4975089;28;20398;-70
2023/04/07 01:06:02;;;;;;;14.57;8.70;;;;;;;;;;4969470;28;20190;-70
2023/04/07 01:08:33;;;;;;;14.10;9.30;;;;;;;;;;4957046;28;20297;-70
2023/04/07 01:11:05;;;;;;;14.67;9.57;;;;;;;;;;4960114;28;20241;-70
2023/04/07 01:13:35;;;;;;;15.53;8.70;;;;;;;;;;4988086;28;20216;-70
2023/04/07 01:16:19;;;;;;;16.57;9.17;;;;;;;;;;4956020;28;20200;-70
2023/04/07 01:18:51;;;;;;;14.33;9.03;;;;;;;;;;4956355;28;20200;-71
2023/04/07 01:21:18;;;;;;;18.30;9.20;;;;;;;;;;4977058;28;20214;-70
2023/04/07 01:23:52;;;;;;;20.30;10.93;;;;;;;;;;4975288;28;20206;-70
2023/04/07 01:26:19;;;;;;;16.63;10.50;;;;;;;;;;4956084;28;20297;-70
2023/04/07 01:28:57;;;;;;;15.70;10.57;;;;;;;;;;4959182;28;20293;-70
2023/04/07 01:31:26;;;;;;;13.20;9.03;;;;;;;;;;4953880;28;20328;-70
2023/04/07 01:33:54;;;;;;;14.60;9.53;;;;;;;;;;4957845;28;20198;-70
2023/04/07 01:36:21;;;;;;;16.40;10.27;;;;;;;;;;4953479;28;20212;-70
2023/04/07 01:38:48;;;;;;;15.80;9.67;;;;;;;;;;4949228;28;20234;-70
2023/04/07 01:41:15;;;;;;;13.00;9.13;;;;;;;;;;4950690;28;20578;-70
2023/04/07 01:43:42;;;;;;;19.03;9.67;;;;;;;;;;4953014;28;20544;-69
2023/04/07 01:46:09;;;;;;;16.03;9.90;;;;;;;;;;4970931;28;20200;-71
2023/04/07 01:48:37;;;;;;;12.43;8.77;;;;;;;;;;4955927;28;20710;-70
2023/04/07 01:51:04;;;;;;;13.37;9.33;;;;;;;;;;4950169;28;20260;-70
2023/04/07 01:53:30;;;;;;;13.07;8.87;;;;;;;;;;4967436;28;20205;-70
2023/04/07 01:55:57;;;;;;;12.10;9.00;;;;;;;;;;4971162;28;20574;-69
2023/04/07 01:58:24;;;;;;;13.70;9.23;;;;;;;;;;4951741;28;20216;-70
2023/04/07 02:00:51;;;;;;;14.70;8.93;;;;;;;;;;4979846;28;20249;-70
2023/04/07 02:03:22;;;;;;;13.93;8.93;;;;;;;;;;4945528;28;20213;-70
2023/04/07 02:05:52;;;;;;;11.30;8.13;;;;;;;;;;4952086;28;20202;-70
2023/04/07 02:08:23;;;;;;;11.07;7.83;;;;;;;;;;4950154;28;20229;-71
2023/04/07 02:10:50;;;;;;;12.40;7.93;;;;;;;;;;4950825;28;20588;-71
2023/04/07 02:13:18;;;;;;;13.13;8.60;;;;;;;;;;4953473;28;20849;-70
2023/04/07 02:15:46;;;;;;;11.53;8.23;;;;;;;;;;4954370;28;20229;-70
2023/04/07 02:18:14;;;;;;;10.60;7.83;;;;;;;;;;4949968;28;20209;-70
2023/04/07 02:20:42;;;;;;;13.30;8.57;;;;;;;;;;4951321;28;20225;-71
2023/04/07 02:23:12;;;;;;;10.53;7.80;;;;;;;;;;4969035;28;20202;-70
2023/04/07 02:25:38;;;;;;;13.17;8.17;;;;;;;;;;4948600;28;20233;-70
2023/04/07 02:28:05;;;;;;;12.57;8.40;;;;;;;;;;4950744;28;20206;-70
2023/04/07 02:30:31;;;;;;;11.67;7.97;;;;;;;;;;4970526;28;20486;-71
2023/04/07 02:32:57;;;;;;;12.97;7.90;;;;;;;;;;4965891;28;20729;-70
2023/04/07 02:35:24;;;;;;;10.77;7.07;;;;;;;;;;4967755;28;20309;-70
2023/04/07 02:37:50;;;;;;;9.97;7.63;;;;;;;;;;4971123;28;20198;-70
2023/04/07 02:40:18;;;;;;;10.30;7.67;;;;;;;;;;4949178;28;20233;-70
2023/04/07 02:42:44;;;;;;;11.57;7.80;;;;;;;;;;4950995;28;20194;-71
2023/04/07 02:45:11;;;;;;;10.20;7.70;;;;;;;;;;4970266;28;20567;-70
2023/04/07 02:47:39;;;;;;;12.43;7.63;;;;;;;;;;4950797;28;20213;-70
2023/04/07 02:50:06;;;;;;;12.10;8.07;;;;;;;;;;4952169;28;20706;-70
2023/04/07 02:52:35;;;;;;;11.87;8.33;;;;;;;;;;4972015;28;20238;-71
2023/04/07 02:55:04;;;;;;;15.13;9.07;;;;;;;;;;4949515;28;20218;-70
2023/04/07 02:57:35;;;;;;;13.97;9.10;;;;;;;;;;4958025;28;20553;-70
2023/04/07 03:00:04;;;;;;;12.17;9.10;;;;;;;;;;4972956;28;20301;-71
2023/04/07 03:02:46;;;;;;;15.73;8.93;;;;;;;;;;4954589;28;20304;-70
2023/04/07 03:05:13;;;;;;;13.70;8.63;;;;;;;;;;4984624;28;20280;-70
2023/04/07 03:07:40;;;;;;;12.97;8.17;;;;;;;;;;4955335;28;20220;-70
2023/04/07 03:10:08;;;;;;;15.43;8.90;;;;;;;;;;4966100;28;20214;-71
2023/04/07 03:12:36;;;;;;;14.17;9.07;;;;;;;;;;4954982;28;20205;-70
2023/04/07 03:15:02;;;;;;;16.50;11.37;;;;;;;;;;4953282;28;20209;-72
2023/04/07 03:17:29;;;;;;;17.37;10.30;;;;;;;;;;4973321;28;20214;-70
2023/04/07 03:19:55;;;;;;;18.50;11.73;;;;;;;;;;4966683;28;20225;-71
2023/04/07 03:22:22;;;;;;;17.47;11.37;;;;;;;;;;4968328;28;20296;-71
2023/04/07 03:24:51;;;;;;;25.30;14.77;;;;;;;;;;4949477;28;20627;-71
2023/04/07 03:27:19;;;;;;;19.20;13.20;;;;;;;;;;4953939;28;20676;-70
2023/04/07 03:29:50;;;;;;;24.33;13.87;;;;;;;;;;4951233;28;20218;-70
2023/04/07 03:32:16;;;;;;;22.07;13.60;;;;;;;;;;4971953;28;20233;-70
2023/04/07 03:34:43;;;;;;;21.53;13.83;;;;;;;;;;4954436;28;20202;-70
2023/04/07 03:37:09;;;;;;;21.27;13.43;;;;;;;;;;4951345;28;20209;-70
2023/04/07 03:39:38;;;;;;;24.13;14.00;;;;;;;;;;4951771;28;20674;-70
2023/04/07 03:42:14;;;;;;;23.47;14.30;;;;;;;;;;4968586;28;20197;-70
2023/04/07 03:44:41;;;;;;;20.23;12.43;;;;;;;;;;4957043;28;20204;-70
2023/04/07 03:47:09;;;;;;;21.43;13.83;;;;;;;;;;4953298;28;20334;-72
2023/04/07 03:49:38;;;;;;;22.97;13.83;;;;;;;;;;4969778;28;20253;-70
2023/04/07 03:52:05;;;;;;;23.17;14.37;;;;;;;;;;4953709;28;20233;-70
2023/04/07 03:54:34;;;;;;;23.27;13.03;;;;;;;;;;4963183;28;20197;-71
2023/04/07 03:57:01;;;;;;;23.60;14.10;;;;;;;;;;4969656;28;20226;-71
2023/04/07 03:59:28;;;;;;;21.93;14.10;;;;;;;;;;4955003;28;20213;-70
2023/04/07 04:02:02;;;;;;;19.30;13.40;;;;;;;;;;4950321;28;20292;-70
2023/04/07 04:04:31;;;;;;;22.10;13.73;;;;;;;;;;4954299;28;20206;-70
2023/04/07 04:07:02;;;;;;;19.60;13.53;;;;;;;;;;4956043;28;20197;-71
2023/04/07 04:09:40;;;;;;;19.63;13.13;;;;;;;;;;4954215;28;20729;-70
2023/04/07 04:12:08;;;;;;;19.13;12.70;;;;;;;;;;4953610;28;20209;-71
2023/04/07 04:14:41;;;;;;;21.87;12.73;;;;;;;;;;4954272;28;20198;-70
2023/04/07 04:17:09;;;;;;;21.17;12.70;;;;;;;;;;4952706;28;20198;-71
2023/04/07 04:19:42;;;;;;;17.97;12.97;;;;;;;;;;4952359;28;20209;-70
2023/04/07 04:22:20;;;;;;;19.37;12.73;;;;;;;;;;4952110;28;20288;-70
2023/04/07 04:24:51;;;;;;;21.93;12.83;;;;;;;;;;4955686;28;20223;-71
2023/04/07 04:27:17;;;;;;;21.97;13.93;;;;;;;;;;4958970;28;20697;-70
2023/04/07 04:29:47;;;;;;;22.23;14.47;;;;;;;;;;4956327;28;20214;-70
2023/04/07 04:32:17;;;;;;;21.20;12.93;;;;;;;;;;4955744;28;20198;-70
2023/04/07 04:34:45;;;;;;;22.57;12.97;;;;;;;;;;4953949;28;20202;-71
2023/04/07 04:37:12;;;;;;;25.57;14.03;;;;;;;;;;4951858;28;20297;-70
2023/04/07 04:39:41;;;;;;;18.83;13.53;;;;;;;;;;4953412;28;20218;-70
2023/04/07 04:42:10;;;;;;;20.77;13.97;;;;;;;;;;4954861;28;20194;-70
2023/04/07 04:44:37;;;;;;;20.23;12.77;;;;;;;;;;4972683;28;20200;-70
2023/04/07 04:47:05;;;;;;;22.10;14.53;;;;;;;;;;4953693;28;20572;-70
2023/04/07 04:49:32;;;;;;;21.23;14.23;;;;;;;;;;4970190;28;20645;-70
2023/04/07 04:52:03;;;;;;;18.40;12.47;;;;;;;;;;4967793;23;20230;-70
2023/04/07 04:54:35;;;;;;;24.10;14.30;;;;;;;;;;4958061;28;20726;-69
2023/04/07 04:57:02;;;;;;;22.67;14.20;;;;;;;;;;4956790;28;20360;-70
2023/04/07 04:59:28;;;;;;;19.50;12.83;;;;;;;;;;4967109;28;20715;-70
2023/04/07 05:02:01;;;;;;;20.70;13.37;;;;;;;;;;4953121;28;20210;-70
2023/04/07 05:04:27;;;;;;;19.63;13.60;;;;;;;;;;4975780;23;20631;-69
2023/04/07 05:07:07;;;;;;;23.97;13.70;;;;;;;;;;4999651;28;20202;-69
2023/04/07 05:09:33;;;;;;;22.50;13.43;;;;;;;;;;4982624;28;20300;-69
2023/04/07 05:12:00;;;;;;;20.83;13.53;;;;;;;;;;4979527;28;20697;-68
2023/04/07 05:14:30;;;;;;;19.93;13.83;;;;;;;;;;4996957;28;20225;-68
2023/04/07 05:17:03;;;;;;;19.40;13.57;;;;;;;;;;4980628;28;20419;-68
2023/04/07 05:19:30;;;;;;;23.43;14.37;;;;;;;;;;4967430;28;20205;-69
2023/04/07 05:22:03;;;;;;;22.20;14.27;;;;;;;;;;4971735;28;20200;-68
2023/04/07 05:24:34;;;;;;;24.43;14.67;;;;;;;;;;4978726;28;20374;-69
2023/04/07 05:27:00;;;;;;;20.03;14.27;;;;;;;;;;4979741;28;20579;-69
2023/04/07 05:29:31;;;;;;;23.07;13.73;;;;;;;;;;4976988;28;20209;-68
2023/04/07 05:31:57;;;;;;;18.83;13.33;;;;;;;;;;4974986;28;20220;-70
2023/04/07 05:34:25;;;;;;;20.70;13.40;;;;;;;;;;4968094;28;20222;-68
2023/04/07 05:36:54;;;;;;;21.20;14.20;;;;;;;;;;4964005;28;20216;-69
2023/04/07 05:39:21;;;;;;;19.37;13.07;;;;;;;;;;4970854;28;20217;-69
2023/04/07 05:41:51;;;;;;;20.37;13.33;;;;;;;;;;4973898;28;20631;-69
2023/04/07 05:44:18;;;;;;;20.67;13.50;;;;;;;;;;4972696;28;20229;-69
2023/04/07 05:46:45;;;;;;;20.60;14.23;;;;;;;;;;4977414;28;20223;-69
2023/04/07 05:49:14;;;;;;;21.70;14.13;;;;;;;;;;4977021;28;20263;-69
2023/04/07 05:51:40;;;;;;;22.00;13.50;;;;;;;;;;4972446;28;20618;-69
2023/04/07 05:54:10;;;;;;;23.10;14.00;;;;;;;;;;4976634;28;20222;-69
2023/04/07 05:56:37;;;;;;;19.47;12.30;;;;;;;;;;4964224;28;20464;-69
2023/04/07 05:59:05;;;;;;;17.60;13.03;;;;;;;;;;4975915;28;20589;-69
2023/04/07 06:01:33;;;;;;;20.97;13.20;;;;;;;;;;4970438;28;20201;-70
2023/04/07 06:04:00;;;;;;;16.83;12.07;;;;;;;;;;4974396;28;20765;-70
2023/04/07 06:06:53;;;;;;;17.33;12.10;;;;;;;;;;4974437;28;20713;-69
2023/04/07 06:09:20;;;;;;;20.43;12.07;;;;;;;;;;4971501;28;20579;-69
2023/04/07 06:11:47;;;;;;;20.33;12.63;;;;;;;;;;4974981;28;20199;-69
2023/04/07 06:14:16;;;;;;;18.27;12.97;;;;;;;;;;4976146;28;20236;-69
2023/04/07 06:16:43;;;;;;;16.10;11.97;;;;;;;;;;4980570;28;20619;-69
2023/04/07 06:19:10;;;;;;;19.90;13.97;;;;;;;;;;4993135;28;20226;-68
2023/04/07 06:21:36;;;;;;;19.63;13.80;;;;;;;;;;4975248;28;20322;-70
2023/04/07 06:24:05;;;;;;;20.33;12.87;;;;;;;;;;4978757;28;20222;-70
2023/04/07 06:26:34;;;;;;;17.03;11.37;;;;;;;;;;4979211;28;20240;-68
2023/04/07 06:29:05;;;;;;;16.23;10.87;;;;;;;;;;4973227;28;20951;-69
2023/04/07 06:31:32;;;;;;;17.10;11.70;;;;;;;;;;4979443;28;20975;-69
2023/04/07 06:33:58;;;;;;;15.03;10.07;;;;;;;;;;4976618;28;20278;-69
2023/04/07 06:36:26;;;;;;;15.63;9.77;;;;;;;;;;4982890;28;20575;-70
2023/04/07 06:38:52;;;;;;;13.87;9.10;;;;;;;;;;4979074;28;20229;-69
2023/04/07 06:41:19;;;;;;;16.47;10.30;;;;;;;;;;4981628;28;20236;-69
2023/04/07 06:43:46;;;;;;;15.33;10.30;;;;;;;;;;4981854;28;20204;-69
2023/04/07 06:46:15;;;;;;;14.90;9.67;;;;;;;;;;4979786;28;20209;-70
2023/04/07 06:48:43;;;;;;;14.33;10.10;;;;;;;;;;4978639;28;20553;-69
2023/04/07 06:51:09;;;;;;;14.77;9.77;;;;;;;;;;4971457;28;20205;-69
2023/04/07 06:53:35;;;;;;;16.10;10.63;;;;;;;;;;4981449;28;20201;-68
2023/04/07 06:56:06;;;;;;;15.30;9.50;;;;;;;;;;4981485;28;20228;-69
2023/04/07 06:58:32;;;;;;;12.33;8.90;;;;;;;;;;4980381;28;20221;-68
2023/04/07 07:00:58;;;;;;;12.57;8.83;;;;;;;;;;4981431;28;20209;-69
2023/04/07 07:03:26;;;;;;;14.17;8.90;;;;;;;;;;4981471;28;20210;-70
2023/04/07 07:05:55;;;;;;;14.23;8.63;;;;;;;;;;4978764;28;20734;-69
2023/04/07 07:08:21;;;;;;;14.73;9.07;;;;;;;;;;4983676;28;20233;-70
2023/04/07 07:10:47;;;;;;;15.23;8.70;;;;;;;;;;4975479;28;20224;-68
2023/04/07 07:13:14;;;;;;;19.47;10.47;;;;;;;;;;4981525;28;20213;-69
2023/04/07 07:15:40;;;;;;;16.70;9.87;;;;;;;;;;4980356;28;20217;-70
2023/04/07 07:18:07;;;;;;;11.53;7.57;;;;;;;;;;4981309;28;20222;-69
2023/04/07 07:20:33;;;;;;;14.07;9.00;;;;;;;;;;4976470;28;20213;-70
2023/04/07 07:23:01;;;;;;;14.23;8.87;;;;;;;;;;4979492;28;20263;-70
2023/04/07 07:25:27;;;;;;;13.13;8.37;;;;;;;;;;4980674;28;20276;-70
2023/04/07 07:27:54;;;;;;;12.83;9.37;;;;;;;;;;4981833;28;20210;-70
2023/04/07 07:30:20;;;;;;;15.47;9.47;;;;;;;;;;4983647;28;20220;-70
2023/04/07 07:32:46;;;;;;;17.70;9.17;;;;;;;;;;4978190;28;20231;-70
2023/04/07 07:35:12;;;;;;;13.47;8.73;;;;;;;;;;4976609;28;20229;-69
2023/04/07 07:37:39;;;;;;;12.60;7.93;;;;;;;;;;4976783;28;20466;-70
2023/04/07 07:40:07;;;;;;;14.17;8.93;;;;;;;;;;4973027;28;20240;-69
2023/04/07 07:42:33;;;;;;;14.00;9.23;;;;;;;;;;4947419;28;20219;-69
2023/04/07 07:45:00;;;;;;;13.23;9.47;;;;;;;;;;4960828;28;20695;-69
2023/04/07 07:47:27;;;;;;;15.90;9.20;;;;;;;;;;4957828;28;20370;-69
2023/04/07 07:49:54;;;;;;;16.20;8.67;;;;;;;;;;4959638;28;20280;-69
2023/04/07 07:52:20;;;;;;;14.73;9.57;;;;;;;;;;4962709;28;20216;-69
2023/04/07 07:54:46;;;;;;;15.23;8.87;;;;;;;;;;4959920;28;20781;-69
2023/04/07 07:57:14;;;;;;;13.10;9.50;;;;;;;;;;4966890;28;20700;-69
2023/04/07 07:59:40;;;;;;;20.33;10.00;;;;;;;;;;4963144;28;21628;-70
2023/04/07 08:02:07;;;;;;;15.07;9.80;;;;;;;;;;4958273;28;20206;-70
2023/04/07 08:04:33;;;;;;;14.57;9.43;;;;;;;;;;4963816;28;20276;-70
2023/04/07 08:06:59;;;;;;;17.60;10.20;;;;;;;;;;4965844;28;20673;-70
2023/04/07 08:09:26;;;;;;;17.47;9.80;;;;;;;;;;4963795;28;20806;-68
2023/04/07 08:11:52;;;;;;;18.23;9.83;;;;;;;;;;4955219;28;20206;-68
2023/04/07 08:14:19;;;;;;;15.40;10.10;;;;;;;;;;4959854;28;20233;-68
2023/04/07 08:16:46;;;;;;;17.73;10.60;;;;;;;;;;4957230;28;20230;-70
2023/04/07 08:19:13;;;;;;;16.20;10.17;;;;;;;;;;4954422;28;20809;-69
2023/04/07 08:21:39;;;;;;;13.40;8.93;;;;;;;;;;4956156;28;20977;-68
2023/04/07 08:24:05;;;;;;;13.20;8.63;;;;;;;;;;4960951;28;20222;-70
2023/04/07 08:26:32;;;;;;;13.27;9.63;;;;;;;;;;4954724;28;20209;-68
2023/04/07 08:28:58;;;;;;;13.50;9.23;;;;;;;;;;4960703;28;20568;-69
2023/04/07 08:31:26;;;;;;;16.67;9.87;;;;;;;;;;4965374;28;20567;-68
2023/04/07 08:33:56;;;;;;;12.90;9.20;;;;;;;;;;4959391;28;20242;-70
2023/04/07 08:36:22;;;;;;;15.77;9.00;;;;;;;;;;4955976;28;20680;-69
2023/04/07 08:38:49;;;;;;;15.37;8.83;;;;;;;;;;4961210;28;20217;-70
2023/04/07 08:41:17;;;;;;;12.97;9.67;;;;;;;;;;4956592;28;20212;-70
2023/04/07 08:43:45;;;;;;;13.73;8.67;;;;;;;;;;4959885;28;20206;-70
2023/04/07 08:46:12;;;;;;;13.03;8.80;;;;;;;;;;4950155;28;20707;-69
2023/04/07 08:48:42;;;;;;;13.57;8.70;;;;;;;;;;4954450;28;20343;-69
2023/04/07 08:51:09;;;;;;;14.23;9.37;;;;;;;;;;4948564;28;20214;-70
2023/04/07 08:53:37;;;;;;;9.73;8.37;;;;;;;;;;4959690;28;20206;-70
2023/04/07 08:56:05;;;;;;;21.70;9.07;;;;;;;;;;4965221;28;20308;-70
2023/04/07 08:58:31;;;;;;;13.63;9.50;;;;;;;;;;4962254;28;20228;-70
2023/04/07 09:00:58;;;;;;;16.13;9.17;;;;;;;;;;4955312;28;20214;-70
2023/04/07 09:03:26;;;;;;;12.50;8.60;;;;;;;;;;4959697;28;20213;-70
2023/04/07 09:05:55;;;;;;;15.03;9.03;;;;;;;;;;4957147;28;20242;-68
2023/04/07 09:08:21;;;;;;;13.83;8.93;;;;;;;;;;4959523;28;20858;-69
2023/04/07 09:10:47;;;;;;;15.23;8.90;;;;;;;;;;4950428;28;20210;-69
2023/04/07 09:13:13;;;;;;;12.63;8.70;;;;;;;;;;4957029;28;20210;-68
2023/04/07 09:15:40;;;;;;;14.23;9.17;;;;;;;;;;4953129;28;20229;-70
2023/04/07 09:18:06;;;;;;;13.23;9.10;;;;;;;;;;4957160;28;20226;-70
2023/04/07 09:20:47;;;;;;;14.93;9.47;;;;;;;;;;4952946;28;20217;-69
2023/04/07 09:23:26;;;;;;;13.97;8.50;;;;;;;;;;4962230;28;20212;-69
2023/04/07 09:25:52;;;;;;;10.40;8.37;;;;;;;;;;4945826;28;20233;-69
2023/04/07 09:28:19;;;;;;;14.00;9.00;;;;;;;;;;4954891;28;20198;-69
2023/04/07 09:30:52;;;;;;;14.50;8.73;;;;;;;;;;4956442;28;20268;-70
2023/04/07 09:33:26;;;;;;;12.67;7.93;;;;;;;;;;4957683;28;20329;-69
2023/04/07 09:35:53;;;;;;;12.53;7.83;;;;;;;;;;4960284;28;20236;-70
2023/04/07 09:38:20;;;;;;;11.97;7.83;;;;;;;;;;4964699;28;20231;-69
2023/04/07 09:40:48;;;;;;;10.93;7.93;;;;;;;;;;4964167;28;20215;-70
2023/04/07 09:43:15;;;;;;;12.67;8.80;;;;;;;;;;4964858;28;20222;-70
2023/04/07 09:45:42;;;;;;;17.07;9.47;;;;;;;;;;4960757;28;20244;-68
2023/04/07 09:48:08;;;;;;;15.07;9.47;;;;;;;;;;4957934;28;20579;-70
2023/04/07 09:50:35;;;;;;;13.07;8.67;;;;;;;;;;4953491;28;20283;-69
2023/04/07 09:53:03;;;;;;;11.17;8.20;;;;;;;;;;4950489;28;20275;-70
2023/04/07 09:55:32;;;;;;;12.47;8.17;;;;;;;;;;4961159;28;20249;-69
2023/04/07 09:57:59;;;;;;;11.47;8.37;;;;;;;;;;4962323;28;20224;-69
2023/04/07 10:00:25;;;;;;;11.00;7.53;;;;;;;;;;4952749;28;20595;-70
2023/04/07 10:02:53;;;;;;;11.03;7.30;;;;;;;;;;4962608;28;20214;-70
2023/04/07 10:05:20;;;;;;;11.03;7.67;;;;;;;;;;4967330;28;20232;-68
2023/04/07 10:07:47;;;;;;;12.93;8.53;;;;;;;;;;4962999;28;20532;-69
2023/04/07 10:10:13;;;;;;;11.70;8.13;;;;;;;;;;4957137;28;20235;-68
2023/04/07 10:12:44;;;;;;;11.33;7.20;;;;;;;;;;4965920;28;20212;-70
2023/04/07 10:15:12;;;;;;;10.77;6.80;;;;;;;;;;4962533;28;20237;-70
2023/04/07 10:17:39;;;;;;;10.00;6.60;;;;;;;;;;4959064;28;20327;-69
2023/04/07 10:20:07;;;;;;;7.00;5.73;;;;;;;;;;4958522;28;20210;-70
2023/04/07 10:22:35;;;;;;;8.30;5.47;;;;;;;;;;4953653;28;20215;-70
2023/04/07 10:25:05;;;;;;;10.90;7.03;;;;;;;;;;4960194;28;20338;-69
2023/04/07 10:27:33;;;;;;;10.70;6.70;;;;;;;;;;4958676;28;20217;-69
2023/04/07 10:30:02;;;;;;;11.67;6.90;;;;;;;;;;4962781;28;20216;-69
2023/04/07 10:32:29;;;;;;;10.43;7.20;;;;;;;;;;4943119;28;20953;-70
2023/04/07 10:34:57;;;;;;;12.10;6.63;;;;;;;;;;4952843;28;20319;-69
2023/04/07 10:37:25;;;;;;;9.77;6.60;;;;;;;;;;4972961;28;20231;-69
2023/04/07 10:39:52;;;;;;;9.07;6.53;;;;;;;;;;4954688;28;20564;-70
2023/04/07 10:42:36;;;;;;;10.23;7.10;;;;;;;;;;4965058;28;20206;-69
2023/04/07 10:45:04;;;;;;;9.53;6.80;;;;;;;;;;4963403;28;20241;-69
2023/04/07 10:47:30;;;;;;;10.70;6.43;;;;;;;;;;4965691;28;20214;-69
2023/04/07 10:50:11;;;;;;;8.33;6.43;;;;;;;;;;4962389;28;20302;-69
2023/04/07 10:52:37;;;;;;;12.30;8.20;;;;;;;;;;4962774;28;21351;-69
2023/04/07 10:55:22;;;;;;;9.73;6.83;;;;;;;;;;4966819;28;20238;-68
2023/04/07 10:58:03;;;;;;;9.10;6.00;;;;;;;;;;4962195;28;20308;-73
2023/04/07 11:01:22;;;;;;;11.13;7.57;;;;;;;;;;4963649;28;20212;-73
2023/04/07 11:03:58;;;;;;;10.77;6.63;;;;;;;;;;4958084;28;20218;-71
2023/04/07 11:06:25;;;;;;;11.03;7.13;;;;;;;;;;4981699;23;20723;-70
2023/04/07 11:08:52;;;;;;;8.43;6.67;;;;;;;;;;4967552;28;20282;-70
2023/04/07 11:11:20;;;;;;;11.63;6.57;;;;;;;;;;4968409;28;20211;-70
2023/04/07 11:13:47;;;;;;;10.23;7.07;;;;;;;;;;4965548;28;20210;-70
2023/04/07 11:16:14;;;;;;;10.30;7.10;;;;;;;;;;4966619;28;20233;-69
2023/04/07 11:18:42;;;;;;;11.80;6.93;;;;;;;;;;4958960;28;20225;-70
2023/04/07 11:21:09;;;;;;;9.73;6.83;;;;;;;;;;4961782;28;20201;-70
2023/04/07 11:23:38;;;;;;;11.23;7.07;;;;;;;;;;4965419;28;20208;-69
2023/04/07 11:26:04;;;;;;;11.47;7.33;;;;;;;;;;4962485;28;20319;-69
2023/04/07 11:28:30;;;;;;;11.40;7.17;;;;;;;;;;4964275;28;20210;-69
2023/04/07 11:30:57;;;;;;;10.73;7.40;;;;;;;;;;4965050;28;20809;-70
2023/04/07 11:33:27;;;;;;;10.30;7.00;;;;;;;;;;4956882;28;20561;-69
2023/04/07 11:35:55;;;;;;;11.10;7.20;;;;;;;;;;4951710;28;20226;-70
2023/04/07 11:38:22;;;;;;;11.07;6.80;;;;;;;;;;4961854;28;20244;-69
2023/04/07 11:40:49;;;;;;;10.47;7.40;;;;;;;;;;4956914;28;20206;-69
2023/04/07 11:43:16;;;;;;;10.23;7.13;;;;;;;;;;4963591;28;20209;-70
2023/04/07 11:45:42;;;;;;;12.63;7.40;;;;;;;;;;4957945;28;20417;-69
2023/04/07 11:48:23;;;;;;;11.80;6.90;;;;;;;;;;4970792;28;20208;-69
2023/04/07 11:50:49;;;;;;;11.13;6.43;;;;;;;;;;4954367;28;20709;-69
2023/04/07 11:53:25;;;;;;;12.80;7.40;;;;;;;;;;4962452;28;21156;-69
2023/04/07 11:55:59;;;;;;;9.77;7.27;;;;;;;;;;4963857;28;20317;-69
2023/04/07 11:58:25;;;;;;;9.33;6.53;;;;;;;;;;4957151;28;20253;-68
2023/04/07 12:00:54;;;;;;;10.10;6.77;;;;;;;;;;4955302;28;20720;-69
2023/04/07 12:03:21;;;;;;;10.60;6.20;;;;;;;;;;4960025;28;20605;-69
2023/04/07 12:05:47;;;;;;;12.07;5.87;;;;;;;;;;4958966;28;20269;-68
2023/04/07 12:08:13;;;;;;;9.53;6.00;;;;;;;;;;4963071;28;20495;-69
2023/04/07 12:10:41;;;;;;;11.13;6.33;;;;;;;;;;4967059;28;20606;-69
2023/04/07 12:13:08;;;;;;;11.00;6.37;;;;;;;;;;4964924;28;20209;-70
2023/04/07 12:15:35;;;;;;;10.03;5.40;;;;;;;;;;4966507;28;20233;-70
2023/04/07 12:18:02;;;;;;;11.07;5.80;;;;;;;;;;4948326;28;20476;-70
2023/04/07 12:20:29;;;;;;;9.33;6.20;;;;;;;;;;4955546;28;20220;-70
2023/04/07 12:22:55;;;;;;;8.97;5.30;;;;;;;;;;4962473;28;20202;-70
2023/04/07 12:25:22;;;;;;;8.07;5.57;;;;;;;;;;4962190;28;20429;-70
2023/04/07 12:27:49;;;;;;;7.97;5.07;;;;;;;;;;4948088;28;20608;-69
2023/04/07 12:30:16;;;;;;;9.27;5.77;;;;;;;;;;4966670;28;20499;-70
2023/04/07 12:32:42;;;;;;;9.40;5.53;;;;;;;;;;4959376;28;20576;-69
2023/04/07 12:35:08;;;;;;;9.70;5.83;;;;;;;;;;4957331;28;20232;-69
2023/04/07 12:37:34;;;;;;;9.13;4.53;;;;;;;;;;4963780;28;20218;-69
2023/04/07 12:40:00;;;;;;;6.77;4.60;;;;;;;;;;4961940;28;20209;-70
2023/04/07 12:42:29;;;;;;;11.23;5.20;;;;;;;;;;4964572;28;20768;-70
2023/04/07 12:44:56;;;;;;;7.13;4.27;;;;;;;;;;4960977;28;20530;-68
2023/04/07 12:47:23;;;;;;;8.67;4.07;;;;;;;;;;4962744;28;20393;-69
2023/04/07 12:49:49;;;;;;;6.60;4.33;;;;;;;;;;4956352;28;20198;-69
2023/04/07 12:52:15;;;;;;;7.93;4.47;;;;;;;;;;4953686;28;20213;-69
2023/04/07 12:54:43;;;;;;;8.50;4.63;;;;;;;;;;4965382;28;20229;-69
2023/04/07 12:57:09;;;;;;;5.97;4.00;;;;;;;;;;4955256;28;20493;-69
2023/04/07 12:59:36;;;;;;;5.47;3.60;;;;;;;;;;4957135;28;20292;-69
2023/04/07 13:02:03;;;;;;;7.03;4.43;;;;;;;;;;4965354;28;20206;-69
2023/04/07 13:04:30;;;;;;;7.23;4.07;;;;;;;;;;4958608;28;20215;-70
2023/04/07 13:06:56;;;;;;;8.27;4.43;;;;;;;;;;4944866;28;20214;-68
2023/04/07 13:09:22;;;;;;;6.37;4.40;;;;;;;;;;4963894;28;20390;-70
2023/04/07 13:11:48;;;;;;;5.10;4.00;;;;;;;;;;4962011;28;20214;-69
2023/04/07 13:14:15;;;;;;;6.57;4.20;;;;;;;;;;4966772;28;20197;-69
2023/04/07 13:16:41;;;;;;;5.67;4.03;;;;;;;;;;4962022;28;20241;-69
2023/04/07 13:19:09;;;;;;;6.83;3.97;;;;;;;;;;4957197;28;20519;-69
2023/04/07 13:21:35;;;;;;;7.57;3.90;;;;;;;;;;4960320;28;20220;-68
2023/04/07 13:24:01;;;;;;;6.67;4.13;;;;;;;;;;4963572;28;20216;-68
2023/04/07 13:26:28;;;;;;;6.03;4.30;;;;;;;;;;4963282;28;20633;-69
2023/04/07 13:28:54;;;;;;;4.73;3.60;;;;;;;;;;4953841;28;20261;-69
2023/04/07 13:31:22;;;;;;;4.67;3.67;;;;;;;;;;4960160;28;20205;-70
2023/04/07 13:33:48;;;;;;;5.20;3.40;;;;;;;;;;4941890;28;20203;-68
2023/04/07 13:36:16;;;;;;;6.63;3.97;;;;;;;;;;4951092;28;20229;-69
2023/04/07 13:38:42;;;;;;;7.33;3.90;;;;;;;;;;4957759;28;20534;-69
2023/04/07 13:41:08;;;;;;;4.13;3.23;;;;;;;;;;4962201;28;20264;-68
2023/04/07 13:43:35;;;;;;;4.73;3.63;;;;;;;;;;4957875;28;20684;-69
2023/04/07 13:46:04;;;;;;;4.40;3.20;;;;;;;;;;4952453;28;20233;-69
2023/04/07 13:48:31;;;;;;;5.37;3.40;;;;;;;;;;4958200;28;20212;-69
2023/04/07 13:50:57;;;;;;;7.53;4.37;;;;;;;;;;4957185;28;20206;-69
2023/04/07 13:53:25;;;;;;;6.40;3.80;;;;;;;;;;4957467;28;20609;-69
2023/04/07 13:55:52;;;;;;;10.40;6.30;;;;;;;;;;4951242;28;20779;-70
2023/04/07 13:58:19;;;;;;;8.60;4.60;;;;;;;;;;4960714;28;20253;-69
2023/04/07 14:00:45;;;;;;;8.57;4.00;;;;;;;;;;4954926;28;20206;-69
2023/04/07 14:03:11;;;;;;;6.23;4.47;;;;;;;;;;4960052;28;20314;-69
2023/04/07 14:05:37;;;;;;;5.97;4.30;;;;;;;;;;4957729;28;20767;-70
2023/04/07 14:08:03;;;;;;;5.27;4.50;;;;;;;;;;4959072;28;21370;-69
2023/04/07 14:10:32;;;;;;;5.37;3.73;;;;;;;;;;4958400;28;20206;-70
2023/04/07 14:12:58;;;;;;;8.70;4.07;;;;;;;;;;4958795;28;20732;-69
2023/04/07 14:15:25;;;;;;;5.70;3.60;;;;;;;;;;4955314;28;20228;-69
2023/04/07 14:17:51;;;;;;;5.27;3.77;;;;;;;;;;4958497;28;20321;-69
2023/04/07 14:20:17;;;;;;;6.60;3.67;;;;;;;;;;4949583;28;20213;-69
2023/04/07 14:22:44;;;;;;;6.10;4.30;;;;;;;;;;4955521;28;20969;-70
2023/04/07 14:25:11;;;;;;;5.23;3.47;;;;;;;;;;4959544;28;20279;-69
2023/04/07 14:27:38;;;;;;;5.23;3.47;;;;;;;;;;4956565;28;20511;-69
2023/04/07 14:30:05;;;;;;;4.80;3.63;;;;;;;;;;4954512;28;20214;-69
2023/04/07 14:32:32;;;;;;;59.87;23.33;;;;;;;;;;4957143;28;20588;-69
2023/04/07 14:34:58;;;;;;;13.00;6.40;;;;;;;;;;4947441;28;20658;-70